createdAt,value
2019-02-15T00:00:38.882Z,33.53
2019-02-15T00:03:08.607Z,33.10
2019-02-15T00:05:37.766Z,32.90
2019-02-15T00:08:06.950Z,33.47
2019-02-15T00:10:36.059Z,30.57
2019-02-15T00:13:13.341Z,31.83
2019-02-15T00:15:36.230Z,30.97
2019-02-15T00:18:19.643Z,32.83
2019-02-15T00:20:59.786Z,31.63
2019-02-15T00:23:28.880Z,30.33
2019-02-15T00:25:57.986Z,30.90
2019-02-15T00:28:27.102Z,31.13
2019-02-15T00:30:56.303Z,31.90
2019-02-15T00:33:25.959Z,30.43
2019-02-15T00:35:55.159Z,30.67
2019-02-15T00:38:24.454Z,30.63
2019-02-15T00:40:53.645Z,29.20
2019-02-15T00:43:22.758Z,29.87
2019-02-15T00:46:00.641Z,27.33
2019-02-15T00:48:29.794Z,28.23
2019-02-15T00:51:07.556Z,25.93
2019-02-15T00:53:51.859Z,26.60
2019-02-15T00:56:27.493Z,25.23
2019-02-15T00:59:14.816Z,25.53
2019-02-15T01:02:03.143Z,25.97
2019-02-15T01:04:48.131Z,26.40
2019-02-15T01:07:35.588Z,26.27
2019-02-15T01:10:22.684Z,27.30
2019-02-15T01:13:00.055Z,26.80
2019-02-15T01:15:29.259Z,26.47
2019-02-15T01:17:58.398Z,26.97
2019-02-15T01:20:27.503Z,27.20
2019-02-15T01:22:56.631Z,26.93
2019-02-15T01:25:27.383Z,28.07
2019-02-15T01:28:10.866Z,27.23
2019-02-15T01:31:11.591Z,27.50
2019-02-15T01:33:48.094Z,27.90
2019-02-15T01:36:24.059Z,28.70
2019-02-15T01:39:06.048Z,28.27
2019-02-15T01:41:54.348Z,28.67
2019-02-15T01:44:31.795Z,26.97
2019-02-15T01:47:08.440Z,28.63
2019-02-15T01:49:37.640Z,28.80
2019-02-15T01:52:06.819Z,28.40
2019-02-15T01:54:35.952Z,27.57
2019-02-15T01:57:05.089Z,27.53
2019-02-15T01:59:34.294Z,28.17
2019-02-15T02:02:03.526Z,28.73
2019-02-15T02:04:32.670Z,28.63
2019-02-15T02:07:01.847Z,27.07
2019-02-15T02:09:30.967Z,28.87
2019-02-15T02:12:00.161Z,29.93
2019-02-15T02:14:30.287Z,28.73
2019-02-15T02:16:59.434Z,28.27
2019-02-15T02:19:28.561Z,28.23
2019-02-15T02:21:58.771Z,29.23
2019-02-15T02:24:28.190Z,28.30
2019-02-15T02:26:57.392Z,29.43
2019-02-15T02:29:26.556Z,29.57
2019-02-15T02:31:55.862Z,29.70
2019-02-15T02:34:25.234Z,29.30
2019-02-15T02:36:55.547Z,31.07
2019-02-15T02:39:25.232Z,30.43
2019-02-15T02:41:54.442Z,31.20
2019-02-15T02:44:23.580Z,31.33
2019-02-15T02:46:52.736Z,29.93
2019-02-15T02:49:21.857Z,29.40
2019-02-15T02:51:51.112Z,31.00
2019-02-15T02:54:20.310Z,28.90
2019-02-15T02:56:49.482Z,30.80
2019-02-15T02:59:18.595Z,31.30
2019-02-15T03:01:47.729Z,29.43
2019-02-15T03:04:16.862Z,31.77
2019-02-15T03:06:46.014Z,31.07
2019-02-15T03:09:15.215Z,30.10
2019-02-15T03:11:44.373Z,30.47
2019-02-15T03:14:14.561Z,31.40
2019-02-15T03:16:43.737Z,30.43
2019-02-15T03:19:12.915Z,32.00
2019-02-15T03:21:42.099Z,31.33
2019-02-15T03:24:11.298Z,29.60
2019-02-15T03:26:40.453Z,30.40
2019-02-15T03:29:09.801Z,28.93
2019-02-15T03:31:38.959Z,29.53
2019-02-15T03:34:08.083Z,28.57
2019-02-15T03:36:49.014Z,27.33
2019-02-15T03:39:37.348Z,25.80
2019-02-15T03:42:07.793Z,26.63
2019-02-15T03:44:36.927Z,25.27
2019-02-15T03:47:06.034Z,26.73
2019-02-15T03:49:35.131Z,25.53
2019-02-15T03:52:04.351Z,27.17
2019-02-15T03:54:33.584Z,25.47
2019-02-15T03:57:02.725Z,25.93
2019-02-15T03:59:31.916Z,26.07
2019-02-15T04:02:01.067Z,25.80
2019-02-15T04:04:30.186Z,25.73
2019-02-15T04:06:59.311Z,29.80
2019-02-15T04:09:28.430Z,25.73
2019-02-15T04:11:57.667Z,27.33
2019-02-15T04:14:32.868Z,30.93
2019-02-15T04:16:57.727Z,30.17
2019-02-15T04:19:26.864Z,32.10
2019-02-15T04:21:56.211Z,30.33
2019-02-15T04:24:25.313Z,32.83
2019-02-15T04:26:55.129Z,30.57
2019-02-15T04:29:24.329Z,31.07
2019-02-15T04:31:53.532Z,30.37
2019-02-15T04:34:22.681Z,30.87
2019-02-15T04:36:51.859Z,31.10
2019-02-15T04:39:20.987Z,29.60
2019-02-15T04:41:50.146Z,29.20
2019-02-15T04:44:19.377Z,28.70
2019-02-15T04:46:50.054Z,28.60
2019-02-15T04:49:19.451Z,27.57
2019-02-15T04:51:49.012Z,26.93
2019-02-15T04:54:18.175Z,27.63
2019-02-15T04:56:47.297Z,28.77
2019-02-15T04:59:16.489Z,26.77
2019-02-15T05:01:45.851Z,26.73
2019-02-15T05:04:14.975Z,25.77
2019-02-15T05:06:44.073Z,25.73
2019-02-15T05:09:13.223Z,25.53
2019-02-15T05:11:42.310Z,26.10
2019-02-15T05:14:11.432Z,26.77
2019-02-15T05:16:40.575Z,26.33
2019-02-15T05:19:10.661Z,27.27
2019-02-15T05:21:39.789Z,28.23
2019-02-15T05:24:09.890Z,27.93
2019-02-15T05:26:39.017Z,29.53
2019-02-15T05:29:08.135Z,29.10
2019-02-15T05:31:37.344Z,28.97
2019-02-15T05:34:06.514Z,29.37
2019-02-15T05:36:35.710Z,29.50
2019-02-15T05:39:06.651Z,29.60
2019-02-15T05:41:35.841Z,29.93
2019-02-15T05:44:05.009Z,29.60
2019-02-15T05:46:34.138Z,31.83
2019-02-15T05:49:03.290Z,30.73
2019-02-15T05:51:32.461Z,31.53
2019-02-15T05:54:01.728Z,31.93
2019-02-15T05:56:30.897Z,31.20
2019-02-15T05:59:00.115Z,31.83
2019-02-15T06:01:29.742Z,31.53
2019-02-15T06:03:58.944Z,31.97
2019-02-15T06:06:28.053Z,32.27
2019-02-15T06:08:57.406Z,33.63
2019-02-15T06:11:26.545Z,30.77
2019-02-15T06:13:55.764Z,32.60
2019-02-15T06:16:24.908Z,32.80
2019-02-15T06:18:54.059Z,30.80
2019-02-15T06:21:23.284Z,32.73
2019-02-15T06:23:52.438Z,33.10
2019-02-15T06:26:21.578Z,33.57
2019-02-15T06:28:50.811Z,33.83
2019-02-15T06:31:20.245Z,32.07
2019-02-15T06:33:49.476Z,33.80
2019-02-15T06:36:18.610Z,33.03
2019-02-15T06:38:47.742Z,34.27
2019-02-15T06:41:17.005Z,33.00
2019-02-15T06:43:46.159Z,32.43
2019-02-15T06:46:15.380Z,32.60
2019-02-15T06:48:44.530Z,32.00
2019-02-15T06:51:13.654Z,31.13
2019-02-15T06:53:42.808Z,32.47
2019-02-15T06:56:12.049Z,32.37
2019-02-15T06:58:53.694Z,34.73
2019-02-15T07:01:29.009Z,34.93
2019-02-15T07:04:08.826Z,33.37
2019-02-15T07:06:38.038Z,34.20
2019-02-15T07:09:07.227Z,35.73
2019-02-15T07:11:36.390Z,36.87
2019-02-15T07:14:05.566Z,33.70
2019-02-15T07:16:34.680Z,35.67
2019-02-15T07:19:03.811Z,35.43
2019-02-15T07:21:32.926Z,38.43
2019-02-15T07:24:02.078Z,36.00
2019-02-15T07:26:31.241Z,37.57
2019-02-15T07:29:00.386Z,35.17
2019-02-15T07:31:29.643Z,36.00
2019-02-15T07:33:58.764Z,37.47
2019-02-15T07:36:27.880Z,38.10
2019-02-15T07:38:57.019Z,38.13
2019-02-15T07:41:26.224Z,36.27
2019-02-15T07:43:55.325Z,36.40
2019-02-15T07:46:24.494Z,37.30
2019-02-15T07:48:53.660Z,36.43
2019-02-15T07:51:22.858Z,36.57
2019-02-15T07:53:51.972Z,33.70
2019-02-15T07:56:21.170Z,34.63
2019-02-15T07:58:50.290Z,34.37
2019-02-15T08:01:19.415Z,33.70
2019-02-15T08:03:48.583Z,32.70
2019-02-15T08:06:17.755Z,31.03
2019-02-15T08:08:46.974Z,32.40
2019-02-15T08:11:17.232Z,31.40
2019-02-15T08:13:46.420Z,33.60
2019-02-15T08:16:15.714Z,33.53
2019-02-15T08:18:44.831Z,33.67
2019-02-15T08:21:14.528Z,30.87
2019-02-15T08:23:43.721Z,31.83
2019-02-15T08:26:12.848Z,31.20
2019-02-15T08:28:41.965Z,34.30
2019-02-15T08:31:11.126Z,33.07
2019-02-15T08:33:40.234Z,33.07
2019-02-15T08:36:09.334Z,34.27
2019-02-15T08:38:38.496Z,33.20
2019-02-15T08:41:07.645Z,33.43
2019-02-15T08:43:37.915Z,31.70
2019-02-15T08:46:07.074Z,33.60
2019-02-15T08:48:36.266Z,35.07
2019-02-15T08:51:05.892Z,37.63
2019-02-15T08:53:35.096Z,32.07
2019-02-15T08:56:04.232Z,34.23
2019-02-15T08:58:33.362Z,35.53
2019-02-15T09:01:02.518Z,36.13
2019-02-15T09:03:32.632Z,35.77
2019-02-15T09:06:01.842Z,36.10
2019-02-15T09:08:30.986Z,35.77
2019-02-15T09:11:02.434Z,35.63
2019-02-15T09:13:31.695Z,38.00
2019-02-15T09:16:09.810Z,45.80
2019-02-15T09:18:31.616Z,43.30
2019-02-15T09:21:00.729Z,37.50
2019-02-15T09:23:29.816Z,35.00
2019-02-15T09:25:58.913Z,35.50
2019-02-15T09:28:33.213Z,35.00
2019-02-15T09:31:02.424Z,34.87
2019-02-15T09:33:31.524Z,37.40
2019-02-15T09:36:00.632Z,35.60
2019-02-15T09:38:30.531Z,36.40
2019-02-15T09:40:59.693Z,35.37
2019-02-15T09:43:28.810Z,33.77
2019-02-15T09:45:58.032Z,31.77
2019-02-15T09:48:27.146Z,32.93
2019-02-15T09:50:56.303Z,31.17
2019-02-15T09:53:25.424Z,31.23
2019-02-15T09:55:54.534Z,29.80
2019-02-15T09:58:23.673Z,30.33
2019-02-15T10:00:52.834Z,29.73
2019-02-15T10:03:21.956Z,29.87
2019-02-15T10:05:51.051Z,29.70
2019-02-15T10:08:20.174Z,29.63
2019-02-15T10:10:49.295Z,32.87
2019-02-15T10:13:18.426Z,39.33
2019-02-15T10:15:47.539Z,36.13
2019-02-15T10:18:16.745Z,28.03
2019-02-15T10:20:45.917Z,28.37
2019-02-15T10:23:15.124Z,27.70
2019-02-15T10:25:44.270Z,27.37
2019-02-15T10:28:13.386Z,27.30
2019-02-15T10:30:42.566Z,26.60
2019-02-15T10:33:11.815Z,26.37
2019-02-15T10:35:41.082Z,26.03
2019-02-15T10:38:10.329Z,27.00
2019-02-15T10:40:39.582Z,25.97
2019-02-15T10:43:09.528Z,25.63
2019-02-15T10:45:38.774Z,27.67
2019-02-15T10:48:10.683Z,25.47
2019-02-15T10:50:40.115Z,27.60
2019-02-15T10:53:10.990Z,27.37
2019-02-15T10:55:40.128Z,35.13
2019-02-15T10:58:09.412Z,31.77
2019-02-15T11:00:38.610Z,30.67
2019-02-15T11:03:07.729Z,26.47
2019-02-15T11:05:36.983Z,25.13
2019-02-15T11:08:06.126Z,23.70
2019-02-15T11:10:35.322Z,23.03
2019-02-15T11:13:04.502Z,23.87
2019-02-15T11:15:33.614Z,25.43
2019-02-15T11:18:02.768Z,23.83
2019-02-15T11:20:32.970Z,24.53
2019-02-15T11:23:02.271Z,26.50
2019-02-15T11:25:32.709Z,24.47
2019-02-15T11:28:01.847Z,25.97
2019-02-15T11:30:31.006Z,24.97
2019-02-15T11:33:00.123Z,24.50
2019-02-15T11:35:29.256Z,23.80
2019-02-15T11:37:58.390Z,24.50
2019-02-15T11:40:27.508Z,24.07
2019-02-15T11:42:56.621Z,24.40
2019-02-15T11:45:25.706Z,23.63
2019-02-15T11:47:54.826Z,24.10
2019-02-15T11:50:23.957Z,23.67
2019-02-15T11:52:53.172Z,21.80
2019-02-15T11:55:22.349Z,23.47
2019-02-15T11:57:51.548Z,23.73
2019-02-15T12:00:25.446Z,22.13
2019-02-15T12:02:54.553Z,23.87
2019-02-15T12:05:23.706Z,24.27
2019-02-15T12:07:52.859Z,24.27
2019-02-15T12:10:22.146Z,24.07
2019-02-15T12:12:51.547Z,23.90
2019-02-15T12:15:20.699Z,28.13
2019-02-15T12:17:49.961Z,32.77
2019-02-15T12:20:19.119Z,36.10
2019-02-15T12:22:48.225Z,32.97
2019-02-15T12:25:17.451Z,30.13
2019-02-15T12:27:46.558Z,26.80
2019-02-15T12:30:15.922Z,25.97
2019-02-15T12:32:45.123Z,26.30
2019-02-15T12:35:14.335Z,24.20
2019-02-15T12:37:43.669Z,23.20
2019-02-15T12:40:13.225Z,21.80
2019-02-15T12:42:42.320Z,21.43
2019-02-15T12:45:11.555Z,19.73
2019-02-15T12:47:40.674Z,17.93
2019-02-15T12:50:10.798Z,19.10
2019-02-15T12:52:39.912Z,18.83
2019-02-15T12:55:09.106Z,19.90
2019-02-15T12:57:38.226Z,20.70
2019-02-15T13:00:10.651Z,19.83
2019-02-15T13:02:39.771Z,18.83
2019-02-15T13:05:09.348Z,18.63
2019-02-15T13:07:38.516Z,17.93
2019-02-15T13:10:08.928Z,18.93
2019-02-15T13:12:38.113Z,17.87
2019-02-15T13:15:07.439Z,17.93
2019-02-15T13:17:36.594Z,19.43
2019-02-15T13:20:05.807Z,19.00
2019-02-15T13:22:34.936Z,18.27
2019-02-15T13:25:04.436Z,19.17
2019-02-15T13:27:33.521Z,17.77
2019-02-15T13:30:02.644Z,17.67
2019-02-15T13:32:32.926Z,18.53
2019-02-15T13:35:02.056Z,18.70
2019-02-15T13:37:31.163Z,18.77
2019-02-15T13:40:00.374Z,17.93
2019-02-15T13:42:29.522Z,18.00
2019-02-15T13:44:58.633Z,17.83
2019-02-15T13:47:34.163Z,18.20
2019-02-15T13:49:58.536Z,18.73
2019-02-15T13:52:27.719Z,20.63
2019-02-15T13:54:56.888Z,18.30
2019-02-15T13:57:26.370Z,19.83
2019-02-15T13:59:55.509Z,19.00
2019-02-15T14:02:24.731Z,19.73
2019-02-15T14:04:53.978Z,18.23
2019-02-15T14:07:23.126Z,19.20
2019-02-15T14:09:52.379Z,19.37
2019-02-15T14:12:21.485Z,17.83
2019-02-15T14:14:50.656Z,17.43
2019-02-15T14:17:19.746Z,18.60
2019-02-15T14:19:48.960Z,17.60
2019-02-15T14:22:19.044Z,17.20
2019-02-15T14:24:48.659Z,17.63
2019-02-15T14:27:17.790Z,15.90
2019-02-15T14:29:47.004Z,17.10
2019-02-15T14:32:16.143Z,15.43
2019-02-15T14:34:45.329Z,16.00
2019-02-15T14:37:14.440Z,14.83
2019-02-15T14:39:43.571Z,15.10
2019-02-15T14:42:12.691Z,15.03
2019-02-15T14:44:41.808Z,14.33
2019-02-15T14:47:10.905Z,13.83
2019-02-15T14:49:40.038Z,13.47
2019-02-15T14:52:09.146Z,13.47
2019-02-15T14:54:38.315Z,13.87
2019-02-15T14:57:07.462Z,14.00
2019-02-15T14:59:36.590Z,13.37
2019-02-15T15:02:05.719Z,13.33
2019-02-15T15:04:34.896Z,13.30
2019-02-15T15:07:04.143Z,13.33
2019-02-15T15:09:33.263Z,14.27
2019-02-15T15:12:02.385Z,14.20
2019-02-15T15:14:31.994Z,14.50
2019-02-15T15:17:01.126Z,14.20
2019-02-15T15:19:30.275Z,14.43
2019-02-15T15:21:59.414Z,13.53
2019-02-15T15:24:28.644Z,13.83
2019-02-15T15:26:57.894Z,13.67
2019-02-15T15:29:27.110Z,13.37
2019-02-15T15:31:56.245Z,12.73
2019-02-15T15:34:25.383Z,12.67
2019-02-15T15:36:54.576Z,13.13
2019-02-15T15:39:23.703Z,12.63
2019-02-15T15:41:52.858Z,13.73
2019-02-15T15:44:22.051Z,12.23
2019-02-15T15:46:51.170Z,12.83
2019-02-15T15:49:20.269Z,12.27
2019-02-15T15:51:49.406Z,11.93
2019-02-15T15:54:18.500Z,11.57
2019-02-15T15:56:47.633Z,12.37
2019-02-15T15:59:16.772Z,12.80
2019-02-15T16:01:45.971Z,13.20
2019-02-15T16:04:15.095Z,12.83
2019-02-15T16:06:44.218Z,12.53
2019-02-15T16:09:13.351Z,12.43
2019-02-15T16:11:42.734Z,12.73
2019-02-15T16:14:11.887Z,12.70
2019-02-15T16:16:41.290Z,12.47
2019-02-15T16:19:11.497Z,12.43
2019-02-15T16:21:40.617Z,13.13
2019-02-15T16:24:12.642Z,12.03
2019-02-15T16:26:40.586Z,12.17
2019-02-15T16:29:09.738Z,12.53
2019-02-15T16:31:38.861Z,12.17
2019-02-15T16:34:08.037Z,11.83
2019-02-15T16:36:37.205Z,12.03
2019-02-15T16:39:06.435Z,11.90
2019-02-15T16:41:35.562Z,11.90
2019-02-15T16:44:04.795Z,11.43
2019-02-15T16:46:34.001Z,11.73
2019-02-15T16:49:03.628Z,12.30
2019-02-15T16:51:32.825Z,11.73
2019-02-15T16:54:02.130Z,11.40
2019-02-15T16:56:31.251Z,11.43
2019-02-15T16:59:00.517Z,11.77
2019-02-15T17:01:29.751Z,12.27
2019-02-15T17:03:58.891Z,11.20
2019-02-15T17:06:28.027Z,11.40
2019-02-15T17:08:57.167Z,11.97
2019-02-15T17:11:26.377Z,12.10
2019-02-15T17:13:55.514Z,12.17
2019-02-15T17:16:24.655Z,11.73
2019-02-15T17:18:53.835Z,11.40
2019-02-15T17:21:23.322Z,11.60
2019-02-15T17:23:52.489Z,11.20
2019-02-15T17:26:21.690Z,11.07
2019-02-15T17:28:50.786Z,10.80
2019-02-15T17:31:19.893Z,11.27
2019-02-15T17:33:49.031Z,11.43
2019-02-15T17:36:18.175Z,10.97
2019-02-15T17:38:48.371Z,10.87
2019-02-15T17:41:18.572Z,10.50
2019-02-15T17:43:47.705Z,11.20
2019-02-15T17:46:16.956Z,10.03
2019-02-15T17:48:46.206Z,10.63
2019-02-15T17:51:15.402Z,10.43
2019-02-15T17:53:44.540Z,10.47
2019-02-15T17:56:13.766Z,9.80
2019-02-15T17:58:43.000Z,10.30
2019-02-15T18:01:12.223Z,10.10
2019-02-15T18:03:41.486Z,9.73
2019-02-15T18:06:11.071Z,9.97
2019-02-15T18:08:40.218Z,10.57
2019-02-15T18:11:09.382Z,10.53
2019-02-15T18:13:38.580Z,9.80
2019-02-15T18:16:08.069Z,10.60
2019-02-15T18:18:37.210Z,10.10
2019-02-15T18:21:06.318Z,10.00
2019-02-15T18:23:35.489Z,9.50
2019-02-15T18:26:04.682Z,9.87
2019-02-15T18:28:33.879Z,10.60
2019-02-15T18:31:03.034Z,10.10
2019-02-15T18:33:32.286Z,10.40
2019-02-15T18:36:01.542Z,10.70
2019-02-15T18:38:30.702Z,10.50
2019-02-15T18:41:00.251Z,10.40
2019-02-15T18:43:29.479Z,10.40
2019-02-15T18:45:58.702Z,9.93
2019-02-15T18:48:27.999Z,10.27
2019-02-15T18:50:57.272Z,11.00
2019-02-15T18:53:26.444Z,10.90
2019-02-15T18:55:55.630Z,10.33
2019-02-15T18:58:24.832Z,11.23
2019-02-15T19:00:54.336Z,11.07
2019-02-15T19:03:24.702Z,11.13
2019-02-15T19:05:53.817Z,11.53
2019-02-15T19:08:22.990Z,11.70
2019-02-15T19:10:52.086Z,11.23
2019-02-15T19:13:22.350Z,11.00
2019-02-15T19:15:51.507Z,11.10
2019-02-15T19:18:20.737Z,10.60
2019-02-15T19:20:49.904Z,9.90
2019-02-15T19:23:19.142Z,10.13
2019-02-15T19:25:48.326Z,10.03
2019-02-15T19:28:17.552Z,10.03
2019-02-15T19:30:46.770Z,9.67
2019-02-15T19:33:16.018Z,9.70
2019-02-15T19:35:46.150Z,9.70
2019-02-15T19:38:15.334Z,9.57
2019-02-15T19:40:44.482Z,9.07
2019-02-15T19:43:13.603Z,9.23
2019-02-15T19:45:43.010Z,9.50
2019-02-15T19:48:12.110Z,9.07
2019-02-15T19:50:41.232Z,9.27
2019-02-15T19:53:10.365Z,9.33
2019-02-15T19:56:04.739Z,9.30
2019-02-15T19:58:33.977Z,9.87
2019-02-15T20:01:03.083Z,9.73
2019-02-15T20:03:32.192Z,9.43
2019-02-15T20:06:01.328Z,10.23
2019-02-15T20:08:30.526Z,9.17
2019-02-15T20:10:59.678Z,9.47
2019-02-15T20:13:28.808Z,10.77
2019-02-15T20:15:58.101Z,10.23
2019-02-15T20:18:27.372Z,10.03
2019-02-15T20:20:56.591Z,9.80
2019-02-15T20:23:25.802Z,9.67
2019-02-15T20:25:54.942Z,9.13
2019-02-15T20:28:24.037Z,9.27
2019-02-15T20:30:53.147Z,9.40
2019-02-15T20:33:22.326Z,9.60
2019-02-15T20:35:51.440Z,8.77
2019-02-15T20:38:20.543Z,9.83
2019-02-15T20:40:49.668Z,9.43
2019-02-15T20:43:18.812Z,9.40
2019-02-15T20:45:48.057Z,9.17
2019-02-15T20:48:17.352Z,8.80
2019-02-15T20:50:46.721Z,8.73
2019-02-15T20:53:15.839Z,9.50
2019-02-15T20:55:45.006Z,9.50
2019-02-15T20:58:14.120Z,8.83
2019-02-15T21:00:43.240Z,9.07
2019-02-15T21:03:12.338Z,9.63
2019-02-15T21:05:41.488Z,9.00
2019-02-15T21:08:10.734Z,8.70
2019-02-15T21:10:40.005Z,9.57
2019-02-15T21:13:09.101Z,9.63
2019-02-15T21:15:38.249Z,9.70
2019-02-15T21:18:07.396Z,8.83
2019-02-15T21:20:36.524Z,8.67
2019-02-15T21:23:05.665Z,8.93
2019-02-15T21:25:34.848Z,8.73
2019-02-15T21:28:03.986Z,8.50
2019-02-15T21:30:33.167Z,9.23
2019-02-15T21:33:02.398Z,9.37
2019-02-15T21:35:31.533Z,8.87
2019-02-15T21:38:00.629Z,8.70
2019-02-15T21:40:29.769Z,8.73
2019-02-15T21:42:58.941Z,8.13
2019-02-15T21:45:28.135Z,7.67
2019-02-15T21:47:57.332Z,7.90
2019-02-15T21:50:26.527Z,7.70
2019-02-15T21:52:55.710Z,8.60
2019-02-15T21:55:24.831Z,8.47
2019-02-15T21:58:01.173Z,8.63
2019-02-15T22:00:26.987Z,8.17
2019-02-15T22:02:56.142Z,8.63
2019-02-15T22:05:25.294Z,9.17
2019-02-15T22:07:54.404Z,8.87
2019-02-15T22:10:23.506Z,8.37
2019-02-15T22:12:52.647Z,8.83
2019-02-15T22:15:21.776Z,8.07
2019-02-15T22:17:50.913Z,8.53
2019-02-15T22:20:26.237Z,8.40
2019-02-15T22:22:50.871Z,7.93
2019-02-15T22:25:19.982Z,7.50
2019-02-15T22:27:49.172Z,8.17
2019-02-15T22:30:18.314Z,8.00
2019-02-15T22:32:47.435Z,8.17
2019-02-15T22:35:17.614Z,7.97
2019-02-15T22:37:46.794Z,7.87
2019-02-15T22:40:25.806Z,7.77
2019-02-15T22:42:55.099Z,7.73
2019-02-15T22:45:24.202Z,7.93
2019-02-15T22:47:53.432Z,8.00
2019-02-15T22:50:22.528Z,7.80
2019-02-15T22:52:51.654Z,7.60
2019-02-15T22:55:20.786Z,7.60
2019-02-15T22:57:49.965Z,6.97
2019-02-15T23:00:25.015Z,8.63
2019-02-15T23:02:55.745Z,8.03
2019-02-15T23:05:24.870Z,9.20
2019-02-15T23:07:54.156Z,8.23
2019-02-15T23:10:23.265Z,7.97
2019-02-15T23:12:52.378Z,7.60
2019-02-15T23:15:21.479Z,8.53
2019-02-15T23:17:50.601Z,8.57
2019-02-15T23:20:19.712Z,8.47
2019-02-15T23:22:48.855Z,10.10
2019-02-15T23:25:17.959Z,8.70
2019-02-15T23:27:47.101Z,7.23
2019-02-15T23:30:16.306Z,7.10
2019-02-15T23:32:45.465Z,7.10
2019-02-15T23:35:14.593Z,6.57
2019-02-15T23:37:43.725Z,6.53
2019-02-15T23:40:12.829Z,7.37
2019-02-15T23:42:41.938Z,7.17
2019-02-15T23:45:11.059Z,7.00
2019-02-15T23:47:40.176Z,6.43
2019-02-15T23:50:09.279Z,6.77
2019-02-15T23:52:38.515Z,6.90
2019-02-15T23:55:07.604Z,6.97
2019-02-15T23:57:36.710Z,6.70
